Portada
METAR-TAF:

METAR-TAF

Aeroports :

Aeroport de París-Charles de Gaulle

París-Charles de Gaulle, França

latitud: 49-01N, longitud: 002-32E, altitud: 118 m

Observació

L'informe es va fer fa 13 minuts, a les 08:00 UTC
Vent 6 kt del Oest, variant entre Sud-Oest i Nord-Oest
Temperatura 18°C
Humitat 68%
Pressió 1024 hPa
Visibilitat 10 km o més
sense núvols per sota de 1500 mi sense presència de cumulonimbus.

METAR: LFPG 180800Z 28006KT 220V320 CAVOK 18/12 Q1024 NOSIG

Hora: 10:13 (08:13 UTC)

Pronòstic

L'informe es va fer fa 3 hores i 13 minuts, a les 05:00 UTC
Pronòstic vàlid del 18 a les 06 UTC al 19 a les 12 UTC
Vent 4 kt del Oest
Visibilitat 10 km o més
sense núvols per sota de 1500 mi sense presència de cumulonimbus.

TAF: LFPG 180500Z 1806/1912 27004KT CAVOK TX25/1815Z TN14/1806Z

Observacions i pronòstics meteorològics de més de 4000 aeroports (METAR i TAF).

Les estacions disponibles són els punts grocs i vermells al mapa.

Posi el ratolí al punt desitjat per veure el nom de l'estació.

Feu clic per veure les observacions i els pronòstics meteorològics.

Per canviar el mapa: feu clic els botons verds amb una creu de color negre per apropar; al botó verd amb un guió per allunyar la imatge; o en les fletxes verdes per a mapes adjacents.


METAR-TAF: